createdAt,value
2019-06-26T00:01:32.160Z,80.50
2019-06-26T00:04:06.747Z,80.30
2019-06-26T00:07:00.617Z,80.30
2019-06-26T00:09:35.694Z,80.30
2019-06-26T00:12:10.196Z,80.00
2019-06-26T00:14:45.232Z,79.80
2019-06-26T00:17:19.956Z,80.40
2019-06-26T00:19:54.826Z,79.80
2019-06-26T00:22:30.175Z,79.80
2019-06-26T00:25:04.696Z,79.50
2019-06-26T00:27:39.234Z,79.50
2019-06-26T00:30:13.938Z,79.10
2019-06-26T00:32:48.740Z,78.80
2019-06-26T00:35:23.121Z,78.50
2019-06-26T00:37:59.368Z,78.90
2019-06-26T00:40:34.154Z,78.90
2019-06-26T00:43:09.589Z,79.10
2019-06-26T00:45:44.517Z,78.60
2019-06-26T00:48:36.967Z,79.10
2019-06-26T00:51:12.056Z,77.60
2019-06-26T00:53:46.713Z,77.60
2019-06-26T00:56:21.465Z,77.40
2019-06-26T00:58:56.166Z,77.10
2019-06-26T01:01:30.865Z,77.60
2019-06-26T01:04:10.112Z,76.50
2019-06-26T01:06:56.068Z,75.80
2019-06-26T01:09:30.905Z,75.40
2019-06-26T01:12:05.625Z,75.10
2019-06-26T01:14:40.451Z,74.20
2019-06-26T01:17:14.927Z,73.50
2019-06-26T01:19:50.925Z,73.40
2019-06-26T01:22:25.563Z,72.80
2019-06-26T01:25:00.318Z,72.40
2019-06-26T01:27:35.147Z,72.20
2019-06-26T01:30:28.556Z,71.90
2019-06-26T01:33:22.258Z,71.20
2019-06-26T01:35:56.882Z,70.80
2019-06-26T01:38:31.669Z,70.70
2019-06-26T01:41:06.387Z,70.20
2019-06-26T01:43:40.853Z,69.70
2019-06-26T01:46:15.433Z,69.30
2019-06-26T01:48:50.438Z,69.30
2019-06-26T01:51:25.114Z,68.70
2019-06-26T01:53:59.901Z,68.70
2019-06-26T01:56:34.495Z,68.30
2019-06-26T01:59:09.334Z,68.20
2019-06-26T02:01:43.996Z,68.00
2019-06-26T02:04:18.313Z,67.50
2019-06-26T02:06:52.927Z,67.40
2019-06-26T02:09:27.763Z,67.00
2019-06-26T02:12:02.568Z,66.40
2019-06-26T02:14:37.387Z,66.10
2019-06-26T02:17:11.850Z,65.80
2019-06-26T02:19:46.733Z,66.20
2019-06-26T02:22:21.520Z,65.90
2019-06-26T02:24:56.287Z,65.30
2019-06-26T02:27:30.953Z,64.90
2019-06-26T02:30:05.603Z,64.90
2019-06-26T02:32:41.125Z,65.10
2019-06-26T02:35:15.547Z,64.60
2019-06-26T02:37:50.499Z,65.20
2019-06-26T02:40:26.177Z,64.50
2019-06-26T02:43:05.481Z,64.20
2019-06-26T02:45:37.286Z,63.40
2019-06-26T02:48:12.281Z,63.90
2019-06-26T02:50:47.171Z,63.30
2019-06-26T02:53:21.662Z,63.50
2019-06-26T02:55:56.179Z,62.70
2019-06-26T02:58:31.021Z,62.80
2019-06-26T03:01:05.743Z,62.90
2019-06-26T03:03:40.925Z,62.50
2019-06-26T03:06:15.631Z,62.30
2019-06-26T03:08:50.673Z,62.00
2019-06-26T03:11:25.608Z,61.60
2019-06-26T03:14:00.728Z,60.70
2019-06-26T03:16:35.662Z,61.00
2019-06-26T03:19:10.550Z,61.00
2019-06-26T03:21:45.325Z,60.60
2019-06-26T03:24:20.447Z,60.90
2019-06-26T03:26:54.770Z,60.90
2019-06-26T03:29:29.410Z,60.80
2019-06-26T03:32:04.278Z,61.00
2019-06-26T03:34:38.938Z,60.80
2019-06-26T03:37:13.409Z,60.70
2019-06-26T03:39:50.302Z,60.80
2019-06-26T03:42:43.970Z,60.80
2019-06-26T03:45:25.529Z,60.20
2019-06-26T03:47:57.700Z,60.00
2019-06-26T03:50:32.333Z,60.20
2019-06-26T03:53:16.684Z,60.70
2019-06-26T03:55:51.364Z,60.50
2019-06-26T03:58:26.802Z,60.00
2019-06-26T04:01:01.702Z,60.20
2019-06-26T04:03:36.477Z,60.40
2019-06-26T04:06:11.101Z,60.10
2019-06-26T04:08:45.924Z,60.20
2019-06-26T04:11:20.689Z,60.10
2019-06-26T04:13:56.054Z,60.00
2019-06-26T04:16:30.968Z,59.70
2019-06-26T04:19:05.826Z,59.10
2019-06-26T04:21:40.776Z,59.10
2019-06-26T04:24:34.714Z,58.80
2019-06-26T04:27:28.637Z,59.30
2019-06-26T04:30:03.515Z,58.80
2019-06-26T04:32:38.141Z,58.60
2019-06-26T04:35:12.691Z,58.20
2019-06-26T04:37:48.378Z,58.40
2019-06-26T04:40:22.912Z,58.10
2019-06-26T04:42:57.119Z,58.30
2019-06-26T04:45:31.470Z,58.20
2019-06-26T04:48:07.261Z,57.90
2019-06-26T04:50:41.835Z,57.70
2019-06-26T04:53:16.906Z,58.10
2019-06-26T04:55:52.070Z,57.80
2019-06-26T04:58:27.841Z,57.60
2019-06-26T05:01:02.339Z,58.10
2019-06-26T05:03:37.110Z,57.80
2019-06-26T05:06:11.739Z,57.50
2019-06-26T05:08:46.095Z,57.50
2019-06-26T05:11:20.841Z,57.40
2019-06-26T05:13:55.591Z,57.30
2019-06-26T05:16:30.447Z,57.10
2019-06-26T05:19:05.275Z,57.00
2019-06-26T05:21:40.892Z,56.40
2019-06-26T05:24:15.609Z,56.70
2019-06-26T05:26:52.304Z,57.10
2019-06-26T05:29:27.389Z,56.90
2019-06-26T05:32:02.479Z,57.30
2019-06-26T05:34:37.581Z,56.90
2019-06-26T05:37:12.437Z,56.90
2019-06-26T05:39:46.984Z,56.60
2019-06-26T05:42:21.834Z,56.90
2019-06-26T05:44:57.100Z,56.60
2019-06-26T05:47:31.549Z,56.80
2019-06-26T05:50:06.356Z,56.60
2019-06-26T05:52:42.768Z,55.80
2019-06-26T05:55:17.342Z,55.60
2019-06-26T05:57:52.200Z,55.90
2019-06-26T06:00:27.520Z,55.30
2019-06-26T06:03:02.252Z,55.20
2019-06-26T06:05:36.978Z,55.60
2019-06-26T06:08:11.802Z,55.40
2019-06-26T06:10:46.061Z,55.40
2019-06-26T06:13:20.449Z,55.20
2019-06-26T06:15:55.159Z,55.40
2019-06-26T06:18:29.670Z,55.20
2019-06-26T06:21:04.094Z,55.20
2019-06-26T06:23:38.736Z,55.60
2019-06-26T06:26:13.561Z,55.40
2019-06-26T06:28:48.088Z,55.30
2019-06-26T06:31:23.044Z,54.70
2019-06-26T06:33:57.386Z,54.80
2019-06-26T06:36:31.841Z,55.30
2019-06-26T06:39:06.905Z,54.90
2019-06-26T06:41:43.465Z,55.20
2019-06-26T06:44:18.114Z,54.90
2019-06-26T06:47:03.245Z,54.50
2019-06-26T06:49:28.522Z,54.50
2019-06-26T06:52:03.415Z,53.90
2019-06-26T06:54:38.558Z,54.20
2019-06-26T06:57:13.005Z,54.20
2019-06-26T06:59:47.748Z,54.00
2019-06-26T07:02:22.712Z,54.10
2019-06-26T07:05:00.209Z,53.70
2019-06-26T07:07:37.003Z,53.80
2019-06-26T07:10:11.978Z,53.60
2019-06-26T07:12:46.469Z,54.00
2019-06-26T07:15:21.166Z,53.60
2019-06-26T07:17:55.875Z,53.70
2019-06-26T07:20:31.187Z,54.00
2019-06-26T07:23:05.444Z,54.20
2019-06-26T07:25:40.341Z,54.00
2019-06-26T07:28:15.063Z,53.90
2019-06-26T07:30:49.847Z,53.90
2019-06-26T07:33:24.670Z,53.90
2019-06-26T07:36:00.127Z,53.70
2019-06-26T07:38:34.683Z,54.10
2019-06-26T07:41:09.130Z,53.90
2019-06-26T07:43:44.061Z,53.90
2019-06-26T07:46:19.057Z,53.80
2019-06-26T07:48:57.210Z,53.90
2019-06-26T07:51:29.176Z,53.90
2019-06-26T07:54:03.670Z,54.10
2019-06-26T07:56:37.726Z,53.90
2019-06-26T07:59:12.977Z,53.90
2019-06-26T08:01:47.638Z,53.60
2019-06-26T08:04:22.183Z,54.10
2019-06-26T08:06:56.982Z,54.00
2019-06-26T08:09:31.658Z,53.60
2019-06-26T08:12:06.102Z,53.90
2019-06-26T08:14:41.101Z,53.60
2019-06-26T08:17:15.662Z,53.60
2019-06-26T08:19:50.347Z,53.20
2019-06-26T08:22:43.726Z,53.70
2019-06-26T08:25:21.537Z,53.60
2019-06-26T08:27:56.055Z,53.50
2019-06-26T08:30:30.468Z,53.00
2019-06-26T08:33:04.875Z,53.00
2019-06-26T08:35:39.140Z,53.10
2019-06-26T08:38:15.589Z,53.40
2019-06-26T08:40:49.946Z,54.00
2019-06-26T08:43:26.667Z,54.40
2019-06-26T08:46:01.750Z,54.70
2019-06-26T08:48:40.214Z,55.30
2019-06-26T08:51:12.527Z,55.30
2019-06-26T08:53:47.428Z,55.20
2019-06-26T08:56:22.465Z,55.70
2019-06-26T08:58:58.591Z,55.80
2019-06-26T09:01:33.418Z,55.60
2019-06-26T09:04:08.231Z,55.40
2019-06-26T09:06:43.312Z,55.30
2019-06-26T09:09:17.949Z,55.20
2019-06-26T09:11:52.631Z,55.30
2019-06-26T09:14:27.994Z,55.50
2019-06-26T09:17:02.639Z,55.50
2019-06-26T09:19:37.290Z,55.70
2019-06-26T09:22:14.746Z,55.90
2019-06-26T09:24:49.700Z,55.60
2019-06-26T09:27:24.170Z,55.60
2019-06-26T09:29:58.544Z,56.20
2019-06-26T09:32:33.242Z,56.20
2019-06-26T09:35:08.070Z,56.60
2019-06-26T09:37:42.863Z,56.80
2019-06-26T09:40:17.859Z,57.70
2019-06-26T09:42:52.900Z,57.80
2019-06-26T09:45:27.485Z,57.80
2019-06-26T09:48:02.100Z,58.70
2019-06-26T09:50:37.702Z,59.80
2019-06-26T09:53:12.250Z,59.00
2019-06-26T09:56:06.138Z,58.60
2019-06-26T09:58:40.855Z,58.70
2019-06-26T10:01:18.462Z,58.90
2019-06-26T10:03:52.766Z,59.50
2019-06-26T10:06:27.400Z,59.80
2019-06-26T10:09:02.452Z,60.70
2019-06-26T10:11:37.678Z,61.80
2019-06-26T10:14:12.749Z,62.40
2019-06-26T10:16:47.902Z,63.20
2019-06-26T10:19:22.618Z,63.80
2019-06-26T10:21:58.101Z,63.90
2019-06-26T10:24:35.269Z,65.00
2019-06-26T10:27:09.909Z,64.60
2019-06-26T10:29:44.579Z,65.10
2019-06-26T10:32:19.640Z,65.60
2019-06-26T10:34:54.766Z,65.80
2019-06-26T10:37:29.060Z,66.40
2019-06-26T10:40:04.011Z,67.10
2019-06-26T10:42:38.554Z,68.40
2019-06-26T10:45:13.609Z,68.20
2019-06-26T10:47:48.634Z,68.70
2019-06-26T10:50:23.410Z,68.80
2019-06-26T10:52:58.009Z,69.10
2019-06-26T10:55:33.313Z,69.10
2019-06-26T10:58:08.308Z,69.20
2019-06-26T11:00:51.427Z,69.50
2019-06-26T11:03:25.864Z,69.50
2019-06-26T11:06:00.487Z,69.90
2019-06-26T11:08:54.231Z,69.80
2019-06-26T11:11:29.346Z,69.80
2019-06-26T11:14:04.401Z,69.70
2019-06-26T11:16:39.583Z,69.90
2019-06-26T11:19:14.400Z,70.00
2019-06-26T11:21:49.452Z,70.10
2019-06-26T11:24:24.741Z,70.20
2019-06-26T11:27:01.273Z,71.00
2019-06-26T11:29:35.843Z,70.50
2019-06-26T11:32:10.509Z,70.60
2019-06-26T11:34:45.119Z,70.80
2019-06-26T11:37:22.837Z,71.00
2019-06-26T11:39:55.789Z,71.20
2019-06-26T11:42:32.751Z,71.40
2019-06-26T11:45:25.394Z,72.30
2019-06-26T11:48:00.027Z,72.00
2019-06-26T11:50:34.727Z,72.20
2019-06-26T11:53:10.974Z,72.30
2019-06-26T11:55:47.283Z,72.40
2019-06-26T11:58:22.143Z,72.30
2019-06-26T12:00:56.901Z,72.70
2019-06-26T12:03:32.403Z,72.90
2019-06-26T12:06:17.953Z,72.90
2019-06-26T12:08:43.020Z,72.90
2019-06-26T12:11:17.767Z,73.10
2019-06-26T12:16:51.625Z,73.20
2019-06-26T12:19:26.298Z,73.40
2019-06-26T12:22:00.745Z,73.50
2019-06-26T12:24:35.453Z,73.60
2019-06-26T12:27:10.350Z,73.50
2019-06-26T12:29:45.018Z,73.70
2019-06-26T12:32:20.109Z,73.80
2019-06-26T12:34:54.939Z,73.90
2019-06-26T12:37:37.476Z,74.00
2019-06-26T12:40:05.874Z,74.20
2019-06-26T12:42:40.694Z,74.40
2019-06-26T12:45:15.333Z,74.60
2019-06-26T12:47:50.040Z,75.00
2019-06-26T12:50:35.434Z,75.10
2019-06-26T12:53:02.395Z,75.20
2019-06-26T12:55:37.299Z,75.60
2019-06-26T12:58:16.081Z,75.90
2019-06-26T13:00:47.897Z,76.10
2019-06-26T13:03:22.942Z,76.20
2019-06-26T13:05:58.825Z,76.20
2019-06-26T13:08:33.495Z,76.30
2019-06-26T13:11:08.379Z,76.40
2019-06-26T13:13:43.120Z,76.20
2019-06-26T13:16:18.145Z,76.40
2019-06-26T13:18:53.073Z,76.30
2019-06-26T13:21:27.759Z,76.80
2019-06-26T13:24:02.547Z,76.50
2019-06-26T13:26:36.979Z,76.60
2019-06-26T13:29:11.728Z,77.00
2019-06-26T13:31:46.473Z,76.90
2019-06-26T13:34:20.979Z,76.90
2019-06-26T13:36:55.977Z,76.90
2019-06-26T13:39:30.826Z,77.20
2019-06-26T13:42:05.769Z,77.20
2019-06-26T13:44:40.273Z,77.30
2019-06-26T13:47:14.783Z,77.40
2019-06-26T13:49:49.789Z,77.60
2019-06-26T13:52:24.528Z,77.70
2019-06-26T13:54:59.511Z,77.80
2019-06-26T13:57:34.296Z,77.90
2019-06-26T14:00:09.591Z,77.90
2019-06-26T14:02:43.929Z,78.00
2019-06-26T14:05:18.935Z,78.10
2019-06-26T14:07:53.381Z,79.10
2019-06-26T14:10:28.284Z,78.40
2019-06-26T14:13:03.239Z,78.90
2019-06-26T14:15:38.003Z,79.30
2019-06-26T14:18:12.561Z,78.80
2019-06-26T14:20:47.788Z,79.00
2019-06-26T14:26:16.395Z,79.00
2019-06-26T14:28:53.761Z,79.10
2019-06-26T14:31:27.164Z,79.10
2019-06-26T14:34:01.880Z,79.20
2019-06-26T14:36:36.073Z,79.20
2019-06-26T14:39:11.708Z,79.30
2019-06-26T14:41:47.358Z,79.20
2019-06-26T14:44:21.642Z,80.00
2019-06-26T14:46:56.402Z,78.60
2019-06-26T14:49:31.035Z,78.60
2019-06-26T14:52:05.576Z,78.70
2019-06-26T14:54:40.538Z,78.70
2019-06-26T14:57:16.251Z,78.80
2019-06-26T14:59:51.097Z,78.80
2019-06-26T15:02:44.815Z,79.00
2019-06-26T15:05:19.623Z,79.10
2019-06-26T15:07:54.286Z,78.90
2019-06-26T15:10:28.655Z,78.90
2019-06-26T15:13:03.757Z,79.20
2019-06-26T15:15:38.625Z,79.20
2019-06-26T15:18:14.364Z,79.30
2019-06-26T15:20:49.209Z,79.20
2019-06-26T15:23:23.659Z,79.30
2019-06-26T15:26:00.315Z,79.30
2019-06-26T15:28:34.226Z,79.20
2019-06-26T15:31:08.832Z,79.40
2019-06-26T15:33:43.619Z,79.60
2019-06-26T15:36:20.852Z,79.60
2019-06-26T15:38:59.112Z,79.70
2019-06-26T15:41:32.943Z,79.70
2019-06-26T15:44:07.917Z,80.70
2019-06-26T15:46:42.245Z,80.10
2019-06-26T15:49:18.064Z,80.10
2019-06-26T15:51:53.361Z,80.30
2019-06-26T15:54:28.181Z,80.30
2019-06-26T15:57:02.818Z,80.40
2019-06-26T15:59:42.743Z,80.50
2019-06-26T16:02:17.599Z,80.70
2019-06-26T16:04:52.308Z,80.80
2019-06-26T16:07:26.834Z,80.80
2019-06-26T16:10:01.070Z,81.00
2019-06-26T16:12:35.946Z,81.20
2019-06-26T16:15:10.686Z,81.20
2019-06-26T16:18:09.359Z,81.30
2019-06-26T16:20:44.023Z,81.50
2019-06-26T16:23:18.864Z,81.40
2019-06-26T16:26:12.393Z,81.60
2019-06-26T16:28:46.949Z,81.60
2019-06-26T16:31:21.802Z,81.70
2019-06-26T16:33:56.033Z,81.60
2019-06-26T16:36:30.754Z,81.60
2019-06-26T16:39:05.394Z,81.60
2019-06-26T16:41:40.118Z,81.60
2019-06-26T16:44:14.639Z,81.40
2019-06-26T16:46:49.455Z,81.60
2019-06-26T16:49:24.113Z,81.60
2019-06-26T16:51:58.476Z,81.60
2019-06-26T16:54:32.955Z,81.70
2019-06-26T16:57:08.525Z,81.60
2019-06-26T16:59:42.694Z,81.40
2019-06-26T17:02:16.788Z,81.50
2019-06-26T17:04:51.267Z,81.40
2019-06-26T17:07:26.114Z,81.50
2019-06-26T17:10:00.512Z,81.50
2019-06-26T17:12:36.474Z,81.40
2019-06-26T17:15:11.527Z,81.40
2019-06-26T17:17:45.842Z,81.50
2019-06-26T17:20:20.724Z,81.60
2019-06-26T17:23:05.140Z,81.60
2019-06-26T17:25:30.998Z,81.70
2019-06-26T17:28:06.713Z,81.70
2019-06-26T17:30:41.399Z,81.90
2019-06-26T17:33:16.451Z,81.70
2019-06-26T17:35:51.221Z,81.70
2019-06-26T17:38:25.757Z,81.90
2019-06-26T17:41:00.099Z,82.10
2019-06-26T17:43:53.740Z,82.00
2019-06-26T17:46:28.447Z,81.90
2019-06-26T17:49:04.119Z,82.00
2019-06-26T17:51:39.760Z,81.90
2019-06-26T17:54:14.035Z,81.90
2019-06-26T17:56:48.893Z,82.00
2019-06-26T17:59:23.715Z,82.20
2019-06-26T18:01:57.992Z,82.10
2019-06-26T18:04:33.223Z,82.00
2019-06-26T18:07:07.600Z,82.10
2019-06-26T18:09:42.673Z,81.90
2019-06-26T18:12:17.373Z,81.60
2019-06-26T18:14:52.076Z,81.20
2019-06-26T18:17:26.885Z,80.90
2019-06-26T18:20:01.653Z,80.80
2019-06-26T18:22:36.788Z,80.80
2019-06-26T18:25:11.417Z,80.50
2019-06-26T18:27:46.084Z,80.30
2019-06-26T18:30:22.779Z,80.30
2019-06-26T18:33:16.810Z,80.50
2019-06-26T18:35:51.847Z,79.80
2019-06-26T18:38:26.555Z,79.80
2019-06-26T18:41:01.366Z,79.50
2019-06-26T18:43:35.665Z,79.20
2019-06-26T18:46:10.396Z,78.90
2019-06-26T18:52:01.027Z,78.60
2019-06-26T18:54:35.610Z,78.40
2019-06-26T18:57:10.898Z,78.20
2019-06-26T18:59:45.444Z,78.20
2019-06-26T19:02:20.126Z,78.00
2019-06-26T19:04:54.993Z,78.00
2019-06-26T19:07:29.973Z,77.90
2019-06-26T19:10:04.936Z,77.90
2019-06-26T19:12:39.786Z,77.90
2019-06-26T19:15:15.179Z,77.90
2019-06-26T19:17:49.986Z,77.90
2019-06-26T19:20:24.825Z,77.80
2019-06-26T19:22:59.318Z,77.70
2019-06-26T19:25:41.456Z,77.40
2019-06-26T19:28:16.262Z,77.00
2019-06-26T19:30:50.974Z,76.90
2019-06-26T19:33:25.583Z,76.70
2019-06-26T19:36:00.285Z,76.70
2019-06-26T19:38:35.295Z,76.60
2019-06-26T19:41:09.465Z,76.20
2019-06-26T19:43:44.006Z,75.90
2019-06-26T19:46:36.505Z,76.00
2019-06-26T19:49:10.848Z,75.60
2019-06-26T19:51:45.659Z,75.70
2019-06-26T19:54:27.202Z,75.30
2019-06-26T19:56:56.843Z,75.20
2019-06-26T19:59:31.606Z,75.20
2019-06-26T20:02:06.288Z,75.00
2019-06-26T20:04:42.014Z,75.20
2019-06-26T20:07:16.603Z,74.90
2019-06-26T20:09:51.108Z,75.00
2019-06-26T20:12:25.711Z,75.10
2019-06-26T20:15:00.545Z,75.00
2019-06-26T20:17:36.490Z,74.90
2019-06-26T20:20:11.464Z,75.00
2019-06-26T20:22:46.797Z,75.20
2019-06-26T20:25:21.424Z,75.20
2019-06-26T20:27:57.178Z,75.20
2019-06-26T20:30:34.882Z,74.90
2019-06-26T20:33:09.569Z,75.00
2019-06-26T20:35:44.038Z,74.90
2019-06-26T20:38:18.921Z,74.90
2019-06-26T20:40:53.473Z,75.00
2019-06-26T20:43:28.117Z,74.90
2019-06-26T20:46:02.578Z,75.20
2019-06-26T20:48:37.475Z,74.80
2019-06-26T20:51:32.361Z,75.00
2019-06-26T20:54:06.999Z,74.90
2019-06-26T20:56:41.695Z,75.10
2019-06-26T20:59:18.597Z,75.20
2019-06-26T21:01:53.339Z,75.20
2019-06-26T21:04:28.135Z,75.10
2019-06-26T21:07:02.866Z,75.00
2019-06-26T21:09:37.488Z,75.00
2019-06-26T21:12:12.517Z,74.90
2019-06-26T21:14:47.051Z,75.00
2019-06-26T21:17:21.320Z,74.90
2019-06-26T21:19:55.778Z,74.80
2019-06-26T21:22:30.103Z,74.80
2019-06-26T21:25:18.403Z,74.80
2019-06-26T21:27:44.542Z,74.90
2019-06-26T21:30:19.527Z,74.80
2019-06-26T21:32:53.990Z,74.80
2019-06-26T21:35:46.912Z,74.90
2019-06-26T21:38:21.714Z,74.70
2019-06-26T21:40:56.808Z,74.70
2019-06-26T21:43:31.552Z,74.60
2019-06-26T21:46:06.163Z,74.40
2019-06-26T21:48:40.951Z,74.60
2019-06-26T21:51:15.750Z,74.60
2019-06-26T21:53:50.676Z,74.50
2019-06-26T21:56:25.524Z,74.60
2019-06-26T21:59:00.287Z,74.60
2019-06-26T22:01:35.088Z,74.60
2019-06-26T22:04:10.317Z,74.50
2019-06-26T22:06:45.393Z,74.60
2019-06-26T22:09:39.231Z,74.70
2019-06-26T22:12:13.819Z,74.70
2019-06-26T22:14:48.197Z,74.70
2019-06-26T22:17:22.499Z,74.80
2019-06-26T22:19:57.117Z,74.90
2019-06-26T22:22:32.223Z,75.00
2019-06-26T22:25:06.503Z,75.10
2019-06-26T22:27:41.724Z,75.10
2019-06-26T22:30:16.511Z,75.20
2019-06-26T22:32:50.712Z,75.20
2019-06-26T22:35:25.253Z,75.40
2019-06-26T22:38:00.228Z,75.50
2019-06-26T22:40:35.131Z,75.60
2019-06-26T22:43:09.997Z,75.50
2019-06-26T22:45:45.478Z,75.60
2019-06-26T22:48:22.637Z,75.50
2019-06-26T22:50:57.343Z,75.60
2019-06-26T22:53:31.940Z,75.50
2019-06-26T22:56:09.428Z,75.70
2019-06-26T22:58:44.082Z,75.60
2019-06-26T23:01:20.895Z,75.60
2019-06-26T23:03:55.665Z,75.40
2019-06-26T23:06:30.211Z,75.40
2019-06-26T23:09:05.538Z,75.40
2019-06-26T23:11:39.907Z,75.30
2019-06-26T23:14:14.297Z,75.50
2019-06-26T23:16:48.715Z,75.40
2019-06-26T23:19:23.827Z,75.40
2019-06-26T23:21:58.281Z,75.50
2019-06-26T23:24:33.587Z,75.50
2019-06-26T23:27:08.083Z,75.60
2019-06-26T23:29:42.539Z,75.60
2019-06-26T23:32:17.322Z,75.90
2019-06-26T23:34:51.765Z,76.00
2019-06-26T23:37:26.460Z,75.90
2019-06-26T23:40:01.283Z,75.90
2019-06-26T23:42:36.048Z,76.10
2019-06-26T23:45:10.726Z,76.10
2019-06-26T23:47:45.686Z,76.20
2019-06-26T23:50:20.601Z,76.20
2019-06-26T23:53:14.305Z,76.50
2019-06-26T23:55:49.167Z,76.60
2019-06-26T23:58:23.747Z,76.80
